createdAt,value
2023-05-01T00:00:53.981Z,5.23
2023-05-01T00:03:20.897Z,5.26
2023-05-01T00:05:48.312Z,5.16
2023-05-01T00:08:16.027Z,5.13
2023-05-01T00:10:42.879Z,5.17
2023-05-01T00:13:10.067Z,5.07
2023-05-01T00:15:37.011Z,4.95
2023-05-01T00:18:03.877Z,4.94
2023-05-01T00:20:31.092Z,4.79
2023-05-01T00:22:58.087Z,4.88
2023-05-01T00:25:24.976Z,4.82
2023-05-01T00:27:51.858Z,4.82
2023-05-01T00:30:18.718Z,4.92
2023-05-01T00:32:45.737Z,4.83
2023-05-01T00:35:13.332Z,4.81
2023-05-01T00:37:40.276Z,4.81
2023-05-01T00:40:07.956Z,4.76
2023-05-01T00:42:36.310Z,4.83
2023-05-01T00:45:04.303Z,4.79
2023-05-01T00:47:31.118Z,4.65
2023-05-01T00:49:59.394Z,4.63
2023-05-01T00:52:26.470Z,4.62
2023-05-01T00:54:54.224Z,4.67
2023-05-01T00:57:21.972Z,4.61
2023-05-01T00:59:49.296Z,4.58
2023-05-01T01:02:16.295Z,4.54
2023-05-01T01:04:45.886Z,4.50
2023-05-01T01:07:21.843Z,4.49
2023-05-01T01:10:08.903Z,4.43
2023-05-01T01:13:22.346Z,4.31
2023-05-01T01:15:57.642Z,4.31
2023-05-01T01:18:48.484Z,4.37
2023-05-01T01:21:28.101Z,4.32
2023-05-01T01:24:22.884Z,4.30
2023-05-01T01:26:58.886Z,4.28
2023-05-01T01:29:57.740Z,4.23
2023-05-01T01:32:40.051Z,4.36
2023-05-01T01:35:12.753Z,4.33
2023-05-01T01:38:02.348Z,4.20
2023-05-01T01:40:35.163Z,4.24
2023-05-01T01:43:10.647Z,4.26
2023-05-01T01:45:43.687Z,4.18
2023-05-01T01:48:14.830Z,4.18
2023-05-01T01:50:43.756Z,4.09
2023-05-01T01:53:13.062Z,3.99
2023-05-01T01:55:43.443Z,4.07
2023-05-01T01:58:12.581Z,4.04
2023-05-01T02:00:41.945Z,4.06
2023-05-01T02:03:10.539Z,3.95
2023-05-01T02:05:40.530Z,3.93
2023-05-01T02:08:08.938Z,3.94
2023-05-01T02:10:37.200Z,3.95
2023-05-01T02:13:05.233Z,3.91
2023-05-01T02:15:34.455Z,3.89
2023-05-01T02:18:06.287Z,3.89
2023-05-01T02:20:33.834Z,3.98
2023-05-01T02:23:02.207Z,3.92
2023-05-01T02:25:31.893Z,3.97
2023-05-01T02:28:12.414Z,4.01
2023-05-01T02:30:39.798Z,4.04
2023-05-01T02:33:09.862Z,4.08
2023-05-01T02:35:44.518Z,4.04
2023-05-01T02:38:12.914Z,4.04
2023-05-01T02:40:42.599Z,4.22
2023-05-01T02:43:12.431Z,4.23
2023-05-01T02:45:41.549Z,4.18
2023-05-01T02:48:11.228Z,4.29
2023-05-01T02:50:40.863Z,4.26
2023-05-01T02:53:08.671Z,4.12
2023-05-01T02:55:36.032Z,4.07
2023-05-01T02:58:02.860Z,4.22
2023-05-01T03:00:29.947Z,4.18
2023-05-01T03:02:56.876Z,4.16
2023-05-01T03:05:23.850Z,4.19
2023-05-01T03:07:51.161Z,4.15
2023-05-01T03:10:18.283Z,4.23
2023-05-01T03:12:45.024Z,4.17
2023-05-01T03:15:14.944Z,4.14
2023-05-01T03:17:41.776Z,4.06
2023-05-01T03:20:10.975Z,3.97
2023-05-01T03:22:37.738Z,4.02
2023-05-01T03:25:04.834Z,4.02
2023-05-01T03:27:31.640Z,4.02
2023-05-01T03:29:58.679Z,4.03
2023-05-01T03:32:25.966Z,3.98
2023-05-01T03:34:52.965Z,3.98
2023-05-01T03:37:19.819Z,4.07
2023-05-01T03:39:46.845Z,4.02
2023-05-01T03:42:13.640Z,4.08
2023-05-01T03:44:40.413Z,4.08
2023-05-01T03:47:07.206Z,4.12
2023-05-01T03:49:34.021Z,3.99
2023-05-01T03:52:00.938Z,4.05
2023-05-01T03:54:27.892Z,3.99
2023-05-01T03:56:54.715Z,4.00
2023-05-01T03:59:21.483Z,3.93
2023-05-01T04:01:48.422Z,3.88
2023-05-01T04:04:15.609Z,4.01
2023-05-01T04:06:42.627Z,3.97
2023-05-01T04:09:09.431Z,3.92
2023-05-01T04:11:36.260Z,4.04
2023-05-01T04:14:03.135Z,4.00
2023-05-01T04:16:30.758Z,3.95
2023-05-01T04:18:57.586Z,4.03
2023-05-01T04:21:24.454Z,4.01
2023-05-01T04:23:51.314Z,4.12
2023-05-01T04:26:18.132Z,4.18
2023-05-01T04:28:44.900Z,4.15
2023-05-01T04:31:11.691Z,4.15
2023-05-01T04:33:38.548Z,4.24
2023-05-01T04:36:05.682Z,4.79
2023-05-01T04:38:32.923Z,4.53
2023-05-01T04:40:59.735Z,4.71
2023-05-01T04:43:26.474Z,4.77
2023-05-01T04:45:54.573Z,5.06
2023-05-01T04:48:21.436Z,5.13
2023-05-01T04:50:48.301Z,5.25
2023-05-01T04:53:15.289Z,5.41
2023-05-01T04:55:42.128Z,5.59
2023-05-01T04:58:08.868Z,5.72
2023-05-01T05:00:35.614Z,5.92
2023-05-01T05:03:02.539Z,6.04
2023-05-01T05:05:29.443Z,6.00
2023-05-01T05:07:56.266Z,6.09
2023-05-01T05:10:23.240Z,6.24
2023-05-01T05:12:50.612Z,6.43
2023-05-01T05:15:17.453Z,6.40
2023-05-01T05:17:45.703Z,6.57
2023-05-01T05:20:12.612Z,6.56
2023-05-01T05:22:39.494Z,6.70
2023-05-01T05:25:06.903Z,6.83
2023-05-01T05:27:38.235Z,6.94
2023-05-01T05:30:06.176Z,7.01
2023-05-01T05:32:33.785Z,7.07
2023-05-01T05:35:00.889Z,7.02
2023-05-01T05:37:27.806Z,7.10
2023-05-01T05:39:54.824Z,7.13
2023-05-01T05:42:21.763Z,7.15
2023-05-01T05:44:48.668Z,7.35
2023-05-01T05:47:15.462Z,7.56
2023-05-01T05:49:42.364Z,7.79
2023-05-01T05:52:09.164Z,8.07
2023-05-01T05:54:35.883Z,7.78
2023-05-01T05:57:03.828Z,7.99
2023-05-01T05:59:30.685Z,8.09
2023-05-01T06:01:57.780Z,8.12
2023-05-01T06:04:24.605Z,8.29
2023-05-01T06:06:51.553Z,8.38
2023-05-01T06:09:19.026Z,8.79
2023-05-01T06:11:46.142Z,8.74
2023-05-01T06:14:12.955Z,9.15
2023-05-01T06:16:42.682Z,9.09
2023-05-01T06:19:12.177Z,9.50
2023-05-01T06:21:39.096Z,9.77
2023-05-01T06:24:06.177Z,9.91
2023-05-01T06:26:33.017Z,10.81
2023-05-01T06:28:59.853Z,11.51
2023-05-01T06:31:27.166Z,12.31
2023-05-01T06:33:54.129Z,12.87
2023-05-01T06:36:21.110Z,12.61
2023-05-01T06:38:49.308Z,12.70
2023-05-01T06:41:16.878Z,12.94
2023-05-01T06:43:43.768Z,12.82
2023-05-01T06:46:10.648Z,12.35
2023-05-01T06:48:37.574Z,12.10
2023-05-01T06:51:04.735Z,11.86
2023-05-01T06:53:31.647Z,12.04
2023-05-01T06:55:58.356Z,11.71
2023-05-01T06:58:25.141Z,11.72
2023-05-01T07:00:53.638Z,11.93
2023-05-01T07:03:21.334Z,12.28
2023-05-01T07:05:48.264Z,12.52
2023-05-01T07:08:15.028Z,12.36
2023-05-01T07:10:42.289Z,12.37
2023-05-01T07:13:09.565Z,12.28
2023-05-01T07:15:36.480Z,12.81
2023-05-01T07:18:06.111Z,12.89
2023-05-01T07:20:33.416Z,12.84
2023-05-01T07:23:00.900Z,13.08
2023-05-01T07:25:27.665Z,13.47
2023-05-01T07:27:54.919Z,13.40
2023-05-01T07:30:22.208Z,13.25
2023-05-01T07:32:49.025Z,13.23
2023-05-01T07:35:15.943Z,13.22
2023-05-01T07:37:42.700Z,13.50
2023-05-01T07:40:09.935Z,13.63
2023-05-01T07:42:36.793Z,13.55
2023-05-01T07:45:03.809Z,13.54
2023-05-01T07:47:30.740Z,13.37
2023-05-01T07:49:57.946Z,13.30
2023-05-01T07:52:25.150Z,13.27
2023-05-01T07:54:52.197Z,13.15
2023-05-01T07:57:19.613Z,13.67
2023-05-01T07:59:46.870Z,13.68
2023-05-01T08:02:14.042Z,13.61
2023-05-01T08:04:41.718Z,13.65
2023-05-01T08:07:08.840Z,13.52
2023-05-01T08:09:36.482Z,13.43
2023-05-01T08:12:13.803Z,13.65
2023-05-01T08:14:40.651Z,13.73
2023-05-01T08:17:07.420Z,13.73
2023-05-01T08:19:34.917Z,14.05
2023-05-01T08:22:02.060Z,14.39
2023-05-01T08:24:29.766Z,14.44
2023-05-01T08:26:56.935Z,14.34
2023-05-01T08:29:23.870Z,14.51
2023-05-01T08:31:50.612Z,14.28
2023-05-01T08:34:17.665Z,14.58
2023-05-01T08:36:44.575Z,14.58
2023-05-01T08:39:11.978Z,14.44
2023-05-01T08:41:39.856Z,14.91
2023-05-01T08:44:08.778Z,14.83
2023-05-01T08:46:48.119Z,15.08
2023-05-01T08:49:17.300Z,14.92
2023-05-01T08:51:52.537Z,15.06
2023-05-01T08:54:20.848Z,15.56
2023-05-01T08:56:47.903Z,15.60
2023-05-01T08:59:15.187Z,15.77
2023-05-01T09:01:45.703Z,16.01
2023-05-01T09:04:13.379Z,16.72
2023-05-01T09:06:40.616Z,16.81
2023-05-01T09:09:08.270Z,16.49
2023-05-01T09:11:34.981Z,16.82
2023-05-01T09:14:05.667Z,17.46
2023-05-01T09:16:32.915Z,17.25
2023-05-01T09:18:59.870Z,17.45
2023-05-01T09:21:31.723Z,18.04
2023-05-01T09:23:58.520Z,18.02
2023-05-01T09:26:26.894Z,18.18
2023-05-01T09:28:58.073Z,18.24
2023-05-01T09:31:29.979Z,18.61
2023-05-01T09:34:01.946Z,18.57
2023-05-01T09:36:31.145Z,18.70
2023-05-01T09:39:02.063Z,18.98
2023-05-01T09:41:31.625Z,19.31
2023-05-01T09:43:59.549Z,19.47
2023-05-01T09:46:27.484Z,19.62
2023-05-01T09:48:59.864Z,19.63
2023-05-01T09:51:37.127Z,19.56
2023-05-01T09:54:05.218Z,19.80
2023-05-01T09:56:46.009Z,20.09
2023-05-01T09:59:20.760Z,19.97
2023-05-01T10:01:50.086Z,20.49
2023-05-01T10:04:18.371Z,20.32
2023-05-01T10:06:46.186Z,19.94
2023-05-01T10:09:28.012Z,20.16
2023-05-01T10:11:57.757Z,20.73
2023-05-01T10:14:26.728Z,20.94
2023-05-01T10:16:53.985Z,20.66
2023-05-01T10:19:21.657Z,20.55
2023-05-01T10:21:48.758Z,20.14
2023-05-01T10:24:16.989Z,20.69
2023-05-01T10:26:45.767Z,20.85
2023-05-01T10:29:13.036Z,20.51
2023-05-01T10:31:42.253Z,20.18
2023-05-01T10:34:11.837Z,20.46
2023-05-01T10:36:46.305Z,20.70
2023-05-01T10:39:36.508Z,21.07
2023-05-01T10:42:11.157Z,20.66
2023-05-01T10:44:38.267Z,21.45
2023-05-01T10:47:31.464Z,21.61
2023-05-01T10:50:09.163Z,20.72
2023-05-01T10:53:25.236Z,20.95
2023-05-01T10:55:52.085Z,21.31
2023-05-01T10:58:42.190Z,20.98
2023-05-01T11:01:40.962Z,21.06
2023-05-01T11:04:49.221Z,20.84
2023-05-01T11:07:18.386Z,20.46
2023-05-01T11:09:46.973Z,20.75
2023-05-01T11:12:15.065Z,20.77
2023-05-01T11:14:54.628Z,21.13
2023-05-01T11:17:39.995Z,21.93
2023-05-01T11:20:07.689Z,21.01
2023-05-01T11:22:35.964Z,21.09
2023-05-01T11:25:06.721Z,21.45
2023-05-01T11:27:33.553Z,21.48
2023-05-01T11:30:00.410Z,22.60
2023-05-01T11:32:30.071Z,22.06
2023-05-01T11:34:57.856Z,22.01
2023-05-01T11:37:44.782Z,22.37
2023-05-01T11:40:29.006Z,21.72
2023-05-01T11:43:06.008Z,21.87
2023-05-01T11:45:33.982Z,22.04
2023-05-01T11:48:04.623Z,22.25
2023-05-01T11:50:36.763Z,22.09
2023-05-01T11:53:15.790Z,21.80
2023-05-01T11:55:43.408Z,21.90
2023-05-01T11:58:10.635Z,21.44
2023-05-01T12:00:42.508Z,21.47
2023-05-01T12:03:12.173Z,21.42
2023-05-01T12:05:42.352Z,21.70
2023-05-01T12:08:18.485Z,22.36
2023-05-01T12:10:48.171Z,21.84
2023-05-01T12:13:16.313Z,22.66
2023-05-01T12:15:47.865Z,22.12
2023-05-01T12:18:17.194Z,21.84
2023-05-01T12:20:45.346Z,21.76
2023-05-01T12:23:13.800Z,21.23
2023-05-01T12:25:41.047Z,21.43
2023-05-01T12:28:16.042Z,21.23
2023-05-01T12:30:43.695Z,21.15
2023-05-01T12:33:22.960Z,21.45
2023-05-01T12:35:50.706Z,21.70
2023-05-01T12:38:22.243Z,21.06
2023-05-01T12:40:57.695Z,21.05
2023-05-01T12:43:36.051Z,20.32
2023-05-01T12:46:04.902Z,20.03
2023-05-01T12:48:34.932Z,19.46
2023-05-01T12:51:01.813Z,19.95
2023-05-01T12:53:29.642Z,20.22
2023-05-01T12:55:58.123Z,20.07
2023-05-01T12:58:37.635Z,20.68
2023-05-01T13:01:05.200Z,20.65
2023-05-01T13:03:33.760Z,20.89
2023-05-01T13:06:03.476Z,20.16
2023-05-01T13:08:36.790Z,19.86
2023-05-01T13:11:17.816Z,20.42
2023-05-01T13:13:45.569Z,20.70
2023-05-01T13:16:14.196Z,21.27
2023-05-01T13:18:51.923Z,21.37
2023-05-01T13:21:21.460Z,21.66
2023-05-01T13:23:59.699Z,21.79
2023-05-01T13:26:32.830Z,22.37
2023-05-01T13:29:02.115Z,22.52
2023-05-01T13:31:29.431Z,21.46
2023-05-01T13:33:58.721Z,22.33
2023-05-01T13:36:28.857Z,22.46
2023-05-01T13:38:57.138Z,22.57
2023-05-01T13:41:26.282Z,23.20
2023-05-01T13:43:56.021Z,23.57
2023-05-01T13:46:25.009Z,22.80
2023-05-01T13:48:52.198Z,22.46
2023-05-01T13:51:27.153Z,21.99
2023-05-01T13:53:56.501Z,22.42
2023-05-01T13:56:23.468Z,22.77
2023-05-01T13:58:50.701Z,23.34
2023-05-01T14:01:23.916Z,23.38
2023-05-01T14:03:50.901Z,23.09
2023-05-01T14:06:19.719Z,23.29
2023-05-01T14:08:48.385Z,23.03
2023-05-01T14:11:16.091Z,22.79
2023-05-01T14:13:44.636Z,22.81
2023-05-01T14:16:25.665Z,22.98
2023-05-01T14:18:56.875Z,22.51
2023-05-01T14:21:27.323Z,22.77
2023-05-01T14:23:55.593Z,22.56
2023-05-01T14:26:24.184Z,22.52
2023-05-01T14:28:51.132Z,22.69
2023-05-01T14:31:25.233Z,22.62
2023-05-01T14:34:04.307Z,23.12
2023-05-01T14:36:32.554Z,22.61
2023-05-01T14:39:00.736Z,22.97
2023-05-01T14:41:27.854Z,23.05
2023-05-01T14:43:54.877Z,23.49
2023-05-01T14:46:30.574Z,23.49
2023-05-01T14:48:59.151Z,23.71
2023-05-01T14:51:26.218Z,23.72
2023-05-01T14:53:53.331Z,23.28
2023-05-01T14:56:21.108Z,23.23
2023-05-01T14:58:47.956Z,23.27
2023-05-01T15:01:15.200Z,23.71
2023-05-01T15:03:43.817Z,23.71
2023-05-01T15:06:11.339Z,23.83
2023-05-01T15:08:38.789Z,23.38
2023-05-01T15:11:05.781Z,23.42
2023-05-01T15:13:32.626Z,23.43
2023-05-01T15:15:59.486Z,23.09
2023-05-01T15:18:26.447Z,23.16
2023-05-01T15:20:53.437Z,23.34
2023-05-01T15:23:20.587Z,22.56
2023-05-01T15:25:47.958Z,22.49
2023-05-01T15:28:14.976Z,22.07
2023-05-01T15:30:46.661Z,21.99
2023-05-01T15:33:16.879Z,22.01
2023-05-01T15:35:46.156Z,21.88
2023-05-01T15:38:13.010Z,21.66
2023-05-01T15:40:39.931Z,21.89
2023-05-01T15:43:06.744Z,21.68
2023-05-01T15:45:33.666Z,21.54
2023-05-01T15:48:01.165Z,21.70
2023-05-01T15:50:28.275Z,21.78
2023-05-01T15:52:55.206Z,21.61
2023-05-01T15:55:22.001Z,21.07
2023-05-01T15:57:48.933Z,20.76
2023-05-01T16:00:17.193Z,20.92
2023-05-01T16:02:44.657Z,20.57
2023-05-01T16:05:14.250Z,20.26
2023-05-01T16:07:41.248Z,20.09
2023-05-01T16:10:08.964Z,20.29
2023-05-01T16:12:35.966Z,20.14
2023-05-01T16:15:04.557Z,19.79
2023-05-01T16:17:43.575Z,19.65
2023-05-01T16:20:12.948Z,19.40
2023-05-01T16:22:41.413Z,19.09
2023-05-01T16:25:09.701Z,19.17
2023-05-01T16:27:41.294Z,18.92
2023-05-01T16:30:09.272Z,18.99
2023-05-01T16:32:36.488Z,18.87
2023-05-01T16:35:05.672Z,18.97
2023-05-01T16:37:34.163Z,18.72
2023-05-01T16:40:01.977Z,18.51
2023-05-01T16:42:29.105Z,18.32
2023-05-01T16:44:56.850Z,18.51
2023-05-01T16:47:23.728Z,18.14
2023-05-01T16:49:52.386Z,17.96
2023-05-01T16:52:19.235Z,17.66
2023-05-01T16:54:46.259Z,17.21
2023-05-01T16:57:13.094Z,17.17
2023-05-01T16:59:39.873Z,17.09
2023-05-01T17:02:07.359Z,16.79
2023-05-01T17:04:34.466Z,16.71
2023-05-01T17:07:01.291Z,16.60
2023-05-01T17:09:28.218Z,16.46
2023-05-01T17:11:59.160Z,16.29
2023-05-01T17:14:28.759Z,16.33
2023-05-01T17:16:56.104Z,16.18
2023-05-01T17:19:23.054Z,15.95
2023-05-01T17:21:50.039Z,16.00
2023-05-01T17:24:16.917Z,15.86
2023-05-01T17:26:43.748Z,15.86
2023-05-01T17:29:10.553Z,15.87
2023-05-01T17:31:37.462Z,15.71
2023-05-01T17:34:04.301Z,15.61
2023-05-01T17:36:31.749Z,15.57
2023-05-01T17:39:01.345Z,15.54
2023-05-01T17:41:28.261Z,15.54
2023-05-01T17:43:55.226Z,15.45
2023-05-01T17:46:22.034Z,15.37
2023-05-01T17:48:49.125Z,15.32
2023-05-01T17:51:15.970Z,15.23
2023-05-01T17:53:42.685Z,15.15
2023-05-01T17:56:09.518Z,15.11
2023-05-01T17:58:36.412Z,15.04
2023-05-01T18:01:04.743Z,15.06
2023-05-01T18:03:34.688Z,14.97
2023-05-01T18:06:02.612Z,14.86
2023-05-01T18:08:29.583Z,14.81
2023-05-01T18:10:56.610Z,14.74
2023-05-01T18:13:27.975Z,14.75
2023-05-01T18:15:55.950Z,14.65
2023-05-01T18:18:23.232Z,14.60
2023-05-01T18:20:50.089Z,14.45
2023-05-01T18:23:18.695Z,14.32
2023-05-01T18:25:46.459Z,14.30
2023-05-01T18:28:16.330Z,14.21
2023-05-01T18:30:43.336Z,14.14
2023-05-01T18:33:10.295Z,14.15
2023-05-01T18:35:39.827Z,14.20
2023-05-01T18:38:06.717Z,14.13
2023-05-01T18:40:33.499Z,14.03
2023-05-01T18:43:00.361Z,14.06
2023-05-01T18:45:27.321Z,14.14
2023-05-01T18:47:54.242Z,14.24
2023-05-01T18:50:22.067Z,14.03
2023-05-01T18:52:49.246Z,13.78
2023-05-01T18:55:16.510Z,13.71
2023-05-01T18:57:44.319Z,13.61
2023-05-01T19:00:14.459Z,13.51
2023-05-01T19:02:41.673Z,13.44
2023-05-01T19:05:09.080Z,13.34
2023-05-01T19:07:36.095Z,13.25
2023-05-01T19:10:03.710Z,13.14
2023-05-01T19:12:30.852Z,13.10
2023-05-01T19:14:57.695Z,13.07
2023-05-01T19:17:24.601Z,12.96
2023-05-01T19:19:51.498Z,12.88
2023-05-01T19:22:18.442Z,12.81
2023-05-01T19:24:46.082Z,12.67
2023-05-01T19:27:13.046Z,12.57
2023-05-01T19:29:40.061Z,12.52
2023-05-01T19:32:07.254Z,12.41
2023-05-01T19:34:34.172Z,12.31
2023-05-01T19:37:27.262Z,12.15
2023-05-01T19:39:54.093Z,12.14
2023-05-01T19:42:20.870Z,11.99
2023-05-01T19:44:47.697Z,11.96
2023-05-01T19:47:14.614Z,11.83
2023-05-01T19:49:41.466Z,11.82
2023-05-01T19:52:10.264Z,11.83
2023-05-01T19:54:37.025Z,11.66
2023-05-01T19:57:04.467Z,11.45
2023-05-01T19:59:31.514Z,11.75
2023-05-01T20:02:00.453Z,11.77
2023-05-01T20:04:28.766Z,11.66
2023-05-01T20:06:55.723Z,11.56
2023-05-01T20:09:22.799Z,11.28
2023-05-01T20:11:49.738Z,11.29
2023-05-01T20:14:16.665Z,11.41
2023-05-01T20:16:43.575Z,11.51
2023-05-01T20:19:10.668Z,11.45
2023-05-01T20:21:37.570Z,11.32
2023-05-01T20:24:04.398Z,11.26
2023-05-01T20:26:31.150Z,11.04
2023-05-01T20:28:58.055Z,11.11
2023-05-01T20:31:24.880Z,11.12
2023-05-01T20:33:51.782Z,11.04
2023-05-01T20:36:18.769Z,11.14
2023-05-01T20:38:47.548Z,11.02
2023-05-01T20:41:14.925Z,10.81
2023-05-01T20:43:41.675Z,10.80
2023-05-01T20:46:08.507Z,10.85
2023-05-01T20:48:35.415Z,10.85
2023-05-01T20:51:02.148Z,10.81
2023-05-01T20:53:29.000Z,10.87
2023-05-01T20:55:55.916Z,10.83
2023-05-01T20:58:22.640Z,10.82
2023-05-01T21:00:49.448Z,10.92
2023-05-01T21:03:16.343Z,10.92
2023-05-01T21:05:43.349Z,10.87
2023-05-01T21:08:10.181Z,10.83
2023-05-01T21:10:37.081Z,10.74
2023-05-01T21:13:03.973Z,10.75
2023-05-01T21:15:32.118Z,10.65
2023-05-01T21:17:59.428Z,10.62
2023-05-01T21:20:35.476Z,10.64
2023-05-01T21:23:02.527Z,10.59
2023-05-01T21:25:31.794Z,10.62
2023-05-01T21:28:03.617Z,10.59
2023-05-01T21:30:33.247Z,10.73
2023-05-01T21:33:01.308Z,10.69
2023-05-01T21:35:30.051Z,10.79
2023-05-01T21:37:57.685Z,10.80
2023-05-01T21:40:25.533Z,10.89
2023-05-01T21:42:56.449Z,10.97
2023-05-01T21:45:24.485Z,11.00
2023-05-01T21:47:51.902Z,11.04
2023-05-01T21:50:21.482Z,11.01
2023-05-01T21:52:49.490Z,10.99
2023-05-01T21:55:21.824Z,10.98
2023-05-01T21:57:53.119Z,11.01
2023-05-01T22:00:21.273Z,11.11
2023-05-01T22:02:49.653Z,11.16
2023-05-01T22:05:19.918Z,11.17
2023-05-01T22:07:47.360Z,11.22
2023-05-01T22:10:17.039Z,11.11
2023-05-01T22:12:44.829Z,11.18
2023-05-01T22:15:13.611Z,11.18
2023-05-01T22:17:41.185Z,11.14
2023-05-01T22:20:09.205Z,11.20
2023-05-01T22:22:37.429Z,11.07
2023-05-01T22:25:04.893Z,10.97
2023-05-01T22:27:32.207Z,11.07
2023-05-01T22:29:59.535Z,11.00
2023-05-01T22:32:26.915Z,10.97
2023-05-01T22:34:53.725Z,10.95
2023-05-01T22:37:20.491Z,10.86
2023-05-01T22:39:47.235Z,10.85
2023-05-01T22:42:14.011Z,10.80
2023-05-01T22:44:40.896Z,10.70
2023-05-01T22:47:07.772Z,10.71
2023-05-01T22:49:34.575Z,10.66
2023-05-01T22:52:03.155Z,10.52
2023-05-01T22:54:30.062Z,10.43
2023-05-01T22:56:56.809Z,10.39
2023-05-01T22:59:24.022Z,10.33
2023-05-01T23:01:50.845Z,10.34
2023-05-01T23:04:17.954Z,10.31
2023-05-01T23:06:45.015Z,10.30
2023-05-01T23:09:12.298Z,10.23
2023-05-01T23:11:40.611Z,10.29
2023-05-01T23:14:07.533Z,10.23
2023-05-01T23:16:41.799Z,10.24
2023-05-01T23:19:24.904Z,10.22
2023-05-01T23:22:08.585Z,10.16
2023-05-01T23:24:49.602Z,10.16
2023-05-01T23:27:17.905Z,10.05
2023-05-01T23:29:57.338Z,10.16
2023-05-01T23:32:30.471Z,10.00
2023-05-01T23:35:20.661Z,10.03
2023-05-01T23:37:47.733Z,10.00
2023-05-01T23:40:14.498Z,10.00
2023-05-01T23:42:41.419Z,9.94
2023-05-01T23:45:08.419Z,9.99
2023-05-01T23:47:35.841Z,9.91
2023-05-01T23:50:03.195Z,9.91
2023-05-01T23:52:30.085Z,9.75
2023-05-01T23:54:56.889Z,9.84
2023-05-01T23:57:23.974Z,9.82
2023-05-01T23:59:50.801Z,9.78
